Time;durP1;ratioP1;P1;durP2;ratioP2;P2;SDS_P1;SDS_P2;PMS_P1;PMS_P2;Temp;Humidity;BMP_temperature;BMP_pressure;BME280_temperature;BME280_humidity;BME280_pressure;Samples;Min_cycle;Max_cycle;Signal;HPM_P1;HPM_P2
2021/10/24 00:01:27;;;;;;;55.78;43.13;;;12.20;99.20;;;;;;5022725;28;20049;-61
2021/10/24 00:03:54;;;;;;;63.28;47.22;;;12.30;99.80;;;;;;5023792;28;20377;-61
2021/10/24 00:06:20;;;;;;;62.70;45.67;;;12.30;99.90;;;;;;5024912;28;20045;-62
2021/10/24 00:08:47;;;;;;;72.93;49.95;;;12.40;99.90;;;;;;5022692;28;20475;-61
2021/10/24 00:11:14;;;;;;;64.15;45.30;;;12.50;99.90;;;;;;5023650;28;20457;-61
2021/10/24 00:13:41;;;;;;;63.80;45.13;;;12.50;99.90;;;;;;5024472;28;20374;-61
2021/10/24 00:16:07;;;;;;;63.50;47.58;;;12.60;99.90;;;;;;5023147;28;20033;-61
2021/10/24 00:18:34;;;;;;;69.38;49.00;;;12.60;99.90;;;;;;5020201;28;20068;-61
2021/10/24 00:21:00;;;;;;;60.13;44.83;;;12.60;99.90;;;;;;5022690;28;20038;-61
2021/10/24 00:23:27;;;;;;;59.40;42.33;;;12.60;99.90;;;;;;5024142;28;20045;-61
2021/10/24 00:25:54;;;;;;;58.95;41.00;;;12.60;99.90;;;;;;5024981;28;20473;-61
2021/10/24 00:28:20;;;;;;;60.55;41.25;;;12.60;99.90;;;;;;5028656;28;21392;-61
2021/10/24 00:30:48;;;;;;;49.08;38.58;;;12.50;99.90;;;;;;5022874;28;20029;-61
2021/10/24 00:33:16;;;;;;;53.47;40.78;;;12.50;99.80;;;;;;5022084;28;20025;-61
2021/10/24 00:35:42;;;;;;;58.40;39.95;;;12.50;99.70;;;;;;5021723;28;20033;-61
2021/10/24 00:38:09;;;;;;;53.75;40.03;;;12.50;99.60;;;;;;5022745;28;20070;-61
2021/10/24 00:40:36;;;;;;;58.30;38.78;;;12.40;99.60;;;;;;5023157;28;20037;-61
2021/10/24 00:43:03;;;;;;;54.20;42.65;;;12.40;99.50;;;;;;5031613;28;20021;-61
2021/10/24 00:45:30;;;;;;;50.53;40.50;;;12.40;99.60;;;;;;5022448;28;20037;-61
2021/10/24 00:47:57;;;;;;;58.40;41.03;;;12.40;99.50;;;;;;5023062;28;20037;-62
2021/10/24 00:50:25;;;;;;;50.25;38.88;;;12.40;99.60;;;;;;5021905;28;20533;-61
2021/10/24 00:52:52;;;;;;;50.20;38.55;;;12.40;99.50;;;;;;5022908;28;20022;-61
2021/10/24 00:55:23;;;;;;;53.60;41.20;;;12.40;99.50;;;;;;5021787;28;20036;-61
2021/10/24 00:57:51;;;;;;;46.78;38.67;;;12.30;99.30;;;;;;5022500;28;20033;-61
2021/10/24 01:00:18;;;;;;;49.53;39.72;;;12.30;99.40;;;;;;5020477;28;20033;-61
2021/10/24 01:02:45;;;;;;;54.08;39.08;;;12.30;99.60;;;;;;5021924;28;20049;-61
2021/10/24 01:05:15;;;;;;;56.75;40.88;;;12.30;99.70;;;;;;5030044;28;20402;-61
2021/10/24 01:07:45;;;;;;;54.85;39.47;;;12.30;99.80;;;;;;5025003;28;20060;-61
2021/10/24 01:10:15;;;;;;;39.60;31.30;;;12.20;99.90;;;;;;5022407;28;20030;-60
2021/10/24 01:12:47;;;;;;;52.40;39.75;;;12.30;99.90;;;;;;5021408;28;20061;-61
2021/10/24 01:15:14;;;;;;;55.05;42.00;;;12.20;99.90;;;;;;5023184;28;20022;-61
2021/10/24 01:17:41;;;;;;;55.67;40.67;;;12.20;99.90;;;;;;5024156;28;20497;-61
2021/10/24 01:20:08;;;;;;;53.72;40.75;;;12.20;99.90;;;;;;5006853;28;20476;-61
2021/10/24 01:22:38;;;;;;;51.70;39.95;;;12.20;99.90;;;;;;5021970;28;20037;-61
2021/10/24 01:25:07;;;;;;;54.08;41.80;;;12.20;99.90;;;;;;5024115;28;20054;-61
2021/10/24 01:27:38;;;;;;;57.42;41.20;;;12.20;99.90;;;;;;5021986;28;20022;-62
2021/10/24 01:30:06;;;;;;;55.03;41.15;;;12.20;99.90;;;;;;5023250;28;20036;-61
2021/10/24 01:32:35;;;;;;;58.25;42.67;;;12.20;99.90;;;;;;5023499;28;20041;-61
2021/10/24 01:35:02;;;;;;;57.92;41.30;;;12.10;99.90;;;;;;5021165;28;20512;-61
2021/10/24 01:37:41;;;;;;;52.85;41.30;;;12.10;99.90;;;;;;5016678;28;20030;-62
2021/10/24 01:40:10;;;;;;;54.90;41.80;;;12.10;99.90;;;;;;5012179;28;20053;-61
2021/10/24 01:42:56;;;;;;;56.45;41.63;;;12.10;99.90;;;;;;5012492;28;20029;-61
2021/10/24 01:45:27;;;;;;;57.17;41.42;;;12.10;99.90;;;;;;5011388;28;20050;-62
2021/10/24 01:48:00;;;;;;;54.33;40.10;;;12.10;99.90;;;;;;5011363;28;20035;-62
2021/10/24 01:50:27;;;;;;;51.33;40.30;;;12.10;99.90;;;;;;5011909;28;20451;-61
2021/10/24 01:52:54;;;;;;;54.97;39.72;;;12.10;99.90;;;;;;5011434;28;20033;-60
2021/10/24 01:55:21;;;;;;;55.28;42.63;;;12.10;99.90;;;;;;5027375;28;20050;-60
2021/10/24 01:57:51;;;;;;;54.38;40.00;;;12.10;99.90;;;;;;5027635;28;20042;-61
2021/10/24 02:00:18;;;;;;;57.93;41.47;;;12.10;99.90;;;;;;5011547;28;20037;-60
2021/10/24 02:02:49;;;;;;;57.10;41.42;;;12.10;99.90;;;;;;5010310;28;20045;-61
2021/10/24 02:05:39;;;;;;;54.35;40.70;;;12.20;99.90;;;;;;5011966;28;20429;-61
2021/10/24 02:08:06;;;;;;;60.13;39.97;;;12.20;99.90;;;;;;5012475;28;20054;-61
2021/10/24 02:10:34;;;;;;;51.97;38.60;;;12.20;99.90;;;;;;5010822;28;20033;-61
2021/10/24 02:13:01;;;;;;;60.42;41.35;;;12.10;99.90;;;;;;5011279;28;20041;-61
2021/10/24 02:15:33;;;;;;;56.30;39.47;;;12.20;99.90;;;;;;5011003;28;20049;-61
2021/10/24 02:18:00;;;;;;;56.17;40.72;;;12.10;99.90;;;;;;5011015;28;20033;-61
2021/10/24 02:20:30;;;;;;;48.88;36.88;;;12.10;99.90;;;;;;5014760;28;20033;-61
2021/10/24 02:23:00;;;;;;;;;;;12.10;99.90;;;;;;5031112;28;20036;-62
2021/10/24 02:25:27;;;;;;;47.25;35.28;;;12.10;99.90;;;;;;5030511;28;19917;-62
2021/10/24 02:27:54;;;;;;;49.95;37.53;;;12.10;99.90;;;;;;5030890;28;20029;-62
2021/10/24 02:30:22;;;;;;;48.40;36.63;;;12.10;99.90;;;;;;5030327;28;20041;-62
2021/10/24 02:32:49;;;;;;;52.42;38.08;;;12.10;99.90;;;;;;5030160;28;20048;-62
2021/10/24 02:35:42;;;;;;;50.42;38.83;;;12.10;99.90;;;;;;5029944;28;20041;-62
2021/10/24 02:38:08;;;;;;;50.67;38.40;;;12.10;99.90;;;;;;5030691;28;20044;-62
2021/10/24 02:40:35;;;;;;;51.65;37.95;;;12.00;99.90;;;;;;5030222;28;20037;-61
2021/10/24 02:43:04;;;;;;;51.30;37.63;;;12.00;99.90;;;;;;5030306;28;20041;-61
2021/10/24 02:45:31;;;;;;;50.08;37.08;;;12.00;99.90;;;;;;5030456;28;20037;-61
2021/10/24 02:47:58;;;;;;;49.90;38.03;;;12.00;99.90;;;;;;5030038;28;20033;-61
2021/10/24 02:50:26;;;;;;;53.25;37.78;;;12.00;99.90;;;;;;5028232;28;20037;-61
2021/10/24 02:52:52;;;;;;;46.17;33.97;;;12.00;99.90;;;;;;5011665;28;20485;-61
2021/10/24 02:55:19;;;;;;;50.17;36.80;;;12.00;99.90;;;;;;5012131;28;20069;-61
2021/10/24 02:57:45;;;;;;;50.50;36.33;;;12.00;99.90;;;;;;5010615;28;20045;-61
2021/10/24 03:00:13;;;;;;;44.72;35.10;;;11.90;99.90;;;;;;4994324;28;20030;-60
2021/10/24 03:02:40;;;;;;;47.58;35.92;;;11.90;99.90;;;;;;5011080;28;20022;-61
2021/10/24 03:05:08;;;;;;;46.38;35.17;;;11.90;99.90;;;;;;5018514;28;20041;-62
2021/10/24 03:07:37;;;;;;;45.35;35.25;;;11.90;99.90;;;;;;5029903;28;20056;-62
2021/10/24 03:10:04;;;;;;;47.85;35.25;;;11.90;99.90;;;;;;5031085;28;20056;-61
2021/10/24 03:12:31;;;;;;;48.25;34.50;;;11.90;99.90;;;;;;5030012;28;20037;-61
2021/10/24 03:15:00;;;;;;;49.55;36.95;;;11.90;99.90;;;;;;5031699;28;20037;-61
2021/10/24 03:17:26;;;;;;;48.50;36.30;;;11.90;99.90;;;;;;5035234;28;20034;-61
2021/10/24 03:19:54;;;;;;;46.58;35.95;;;11.90;99.90;;;;;;5034089;28;20033;-61
2021/10/24 03:22:20;;;;;;;46.50;34.97;;;11.90;99.90;;;;;;5033425;28;20025;-62
2021/10/24 03:24:47;;;;;;;47.55;36.13;;;11.90;99.90;;;;;;5033858;28;20044;-62
2021/10/24 03:27:13;;;;;;;48.45;36.47;;;11.90;99.90;;;;;;5034112;28;20030;-60
2021/10/24 03:29:40;;;;;;;45.25;35.53;;;11.90;99.90;;;;;;5033518;28;20029;-61
2021/10/24 03:32:08;;;;;;;48.63;36.35;;;11.90;99.90;;;;;;5034100;28;20052;-61
2021/10/24 03:34:34;;;;;;;47.58;35.00;;;11.90;99.90;;;;;;5033771;28;20029;-61
2021/10/24 03:37:01;;;;;;;48.08;37.40;;;12.00;99.90;;;;;;5035059;28;20037;-61
2021/10/24 03:39:31;;;;;;;49.47;34.53;;;12.00;99.90;;;;;;5033218;28;20384;-62
2021/10/24 03:42:02;;;;;;;;;;;12.00;99.90;;;;;;5028246;28;20760;-62
2021/10/24 03:44:28;;;;;;;51.03;35.58;;;12.00;99.90;;;;;;5024625;28;19924;-62
2021/10/24 03:46:54;;;;;;;49.38;35.50;;;12.10;99.90;;;;;;5035023;28;20029;-62
2021/10/24 03:49:22;;;;;;;49.13;36.92;;;12.10;99.90;;;;;;5033663;28;20041;-61
2021/10/24 03:51:48;;;;;;;55.25;37.67;;;12.10;99.90;;;;;;5032648;28;20041;-61
2021/10/24 03:54:15;;;;;;;47.42;35.22;;;12.10;99.90;;;;;;5034436;28;20033;-61
2021/10/24 03:56:41;;;;;;;48.30;36.05;;;12.10;99.90;;;;;;5033919;28;20038;-61
2021/10/24 03:59:07;;;;;;;43.88;35.03;;;12.10;99.90;;;;;;5033453;28;20040;-61
2021/10/24 04:01:34;;;;;;;45.25;35.13;;;12.10;99.90;;;;;;5007236;28;20033;-61
2021/10/24 04:04:01;;;;;;;50.83;34.88;;;12.10;99.90;;;;;;5018094;28;20040;-62
2021/10/24 04:06:27;;;;;;;46.78;35.08;;;12.10;99.90;;;;;;5032786;28;20378;-61
2021/10/24 04:08:54;;;;;;;48.35;35.08;;;12.10;99.90;;;;;;5034316;28;20048;-61
2021/10/24 04:11:20;;;;;;;43.53;34.58;;;12.10;99.90;;;;;;5019791;28;20402;-62
2021/10/24 04:13:47;;;;;;;45.28;33.72;;;12.10;99.90;;;;;;5013533;28;20042;-62
2021/10/24 04:16:14;;;;;;;45.15;33.90;;;12.10;99.90;;;;;;5013003;28;20098;-62
2021/10/24 04:19:04;;;;;;;51.55;35.67;;;12.10;99.90;;;;;;5013368;28;20497;-62
2021/10/24 04:21:32;;;;;;;51.53;37.60;;;12.10;99.90;;;;;;5012833;28;20026;-62
2021/10/24 04:23:59;;;;;;;44.42;34.03;;;12.10;99.90;;;;;;5012975;28;20030;-61
2021/10/24 04:26:26;;;;;;;49.75;37.58;;;12.10;99.90;;;;;;5011991;28;20030;-62
2021/10/24 04:28:53;;;;;;;49.85;37.20;;;12.10;99.90;;;;;;5012962;28;20041;-62
2021/10/24 04:31:19;;;;;;;44.13;34.63;;;12.10;99.90;;;;;;5014372;28;20026;-61
2021/10/24 04:33:47;;;;;;;47.55;35.75;;;12.10;99.90;;;;;;5012727;28;20033;-61
2021/10/24 04:36:13;;;;;;;50.50;37.65;;;12.10;99.90;;;;;;5014221;28;20443;-62
2021/10/24 04:38:44;;;;;;;46.67;34.35;;;12.10;99.90;;;;;;5012129;28;20038;-61
2021/10/24 04:41:10;;;;;;;47.03;35.20;;;12.10;99.90;;;;;;5012708;28;20037;-61
2021/10/24 04:43:37;;;;;;;46.92;33.67;;;12.20;99.90;;;;;;5012541;28;20388;-61
2021/10/24 04:46:04;;;;;;;48.47;35.17;;;12.20;99.90;;;;;;5012553;28;20034;-61
2021/10/24 04:48:30;;;;;;;45.22;34.10;;;12.20;99.90;;;;;;5012364;28;20508;-61
2021/10/24 04:50:56;;;;;;;45.90;33.58;;;12.20;99.90;;;;;;5013772;28;20030;-62
2021/10/24 04:53:23;;;;;;;44.63;32.50;;;12.20;99.90;;;;;;5012586;28;20501;-61
2021/10/24 04:55:51;;;;;;;48.25;34.53;;;12.30;99.90;;;;;;5012549;28;20037;-61
2021/10/24 04:58:17;;;;;;;44.40;33.45;;;12.30;99.80;;;;;;5013491;28;20060;-62
2021/10/24 05:00:43;;;;;;;46.08;32.72;;;12.30;99.00;;;;;;5014045;28;20057;-62
2021/10/24 05:03:12;;;;;;;41.35;30.67;;;12.30;98.40;;;;;;5012781;28;20034;-61
2021/10/24 05:05:41;;;;;;;45.45;31.55;;;12.30;97.70;;;;;;5011840;28;20034;-61
2021/10/24 05:08:08;;;;;;;47.70;33.50;;;12.40;97.70;;;;;;5012283;28;20046;-60
2021/10/24 05:10:34;;;;;;;44.65;31.63;;;12.40;97.40;;;;;;5011615;28;20478;-61
2021/10/24 05:13:01;;;;;;;45.47;30.90;;;12.40;97.40;;;;;;5012280;28;20436;-62
2021/10/24 05:15:27;;;;;;;45.10;33.92;;;12.40;97.40;;;;;;5011483;28;20059;-61
2021/10/24 05:17:54;;;;;;;41.50;30.67;;;12.40;97.50;;;;;;5012114;28;20041;-61
2021/10/24 05:20:21;;;;;;;38.70;31.35;;;12.40;97.50;;;;;;5012092;28;20057;-62
2021/10/24 05:22:48;;;;;;;44.13;31.95;;;12.40;97.50;;;;;;5013355;28;20378;-62
2021/10/24 05:25:15;;;;;;;46.08;33.33;;;12.50;97.50;;;;;;5011852;28;20438;-62
2021/10/24 05:27:42;;;;;;;47.45;34.42;;;12.50;97.50;;;;;;5011847;28;20034;-61
2021/10/24 05:30:09;;;;;;;40.08;30.42;;;12.50;97.40;;;;;;5011733;28;20037;-61
2021/10/24 05:32:36;;;;;;;42.97;32.88;;;12.50;97.40;;;;;;5011738;28;20058;-61
2021/10/24 05:35:06;;;;;;;44.20;31.63;;;12.50;97.20;;;;;;4996230;28;20359;-62
2021/10/24 05:37:32;;;;;;;45.28;32.88;;;12.50;97.00;;;;;;5011539;28;20026;-60
2021/10/24 05:39:59;;;;;;;44.50;33.53;;;12.50;96.90;;;;;;5012556;28;20038;-61
2021/10/24 05:42:46;;;;;;;45.63;31.45;;;12.50;96.80;;;;;;5011620;28;20029;-61
2021/10/24 05:45:13;;;;;;;43.65;33.30;;;12.50;96.50;;;;;;5011602;28;20497;-61
2021/10/24 05:47:40;;;;;;;43.92;33.83;;;12.50;96.40;;;;;;5011382;28;20030;-62
2021/10/24 05:50:36;;;;;;;44.42;33.20;;;12.50;97.40;;;;;;5027770;28;20049;-62
2021/10/24 05:53:03;;;;;;;42.08;30.13;;;12.50;98.60;;;;;;5013706;28;20501;-62
2021/10/24 05:55:30;;;;;;;42.63;30.90;;;12.40;99.00;;;;;;5030905;28;20029;-61
2021/10/24 05:57:57;;;;;;;41.00;30.33;;;12.30;99.30;;;;;;5029715;28;20036;-61
2021/10/24 06:00:48;;;;;;;39.95;30.42;;;12.30;99.50;;;;;;5031200;28;20037;-61
2021/10/24 06:03:32;;;;;;;39.97;30.83;;;12.30;99.80;;;;;;5031954;28;20033;-60
2021/10/24 06:06:19;;;;;;;39.40;28.77;;;12.30;99.90;;;;;;5030276;28;20064;-61
2021/10/24 06:08:46;;;;;;;38.13;29.55;;;12.30;99.90;;;;;;5030774;28;20046;-61
2021/10/24 06:11:45;;;;;;;40.03;30.40;;;12.20;99.90;;;;;;5011950;28;20029;-62
2021/10/24 06:14:00;;;;;;;42.15;29.25;;;12.20;99.90;;;;;;5021267;28;20381;-61
2021/10/24 06:16:27;;;;;;;40.42;31.65;;;12.10;99.90;;;;;;5023985;28;20034;-61
2021/10/24 06:18:54;;;;;;;42.88;30.85;;;12.10;99.90;;;;;;5030767;28;20366;-61
2021/10/24 06:21:21;;;;;;;39.25;29.42;;;12.10;99.90;;;;;;5030702;28;20041;-61
2021/10/24 06:23:48;;;;;;;39.22;29.25;;;12.10;99.90;;;;;;5030410;28;20044;-61
2021/10/24 06:26:15;;;;;;;39.70;30.25;;;12.00;99.90;;;;;;5030830;28;20048;-61
2021/10/24 06:28:42;;;;;;;39.20;29.80;;;12.00;99.90;;;;;;5030448;28;20025;-61
2021/10/24 06:31:08;;;;;;;44.90;32.00;;;12.00;99.90;;;;;;5030186;28;20041;-61
2021/10/24 06:33:53;;;;;;;42.83;29.90;;;12.00;99.90;;;;;;5031710;28;20029;-61
2021/10/24 06:36:52;;;;;;;42.28;29.67;;;12.00;99.90;;;;;;5030628;28;20140;-61
2021/10/24 06:39:30;;;;;;;36.50;29.10;;;12.00;99.90;;;;;;5029401;28;20083;-61
2021/10/24 06:41:56;;;;;;;39.70;31.55;;;12.00;99.90;;;;;;5032216;28;20041;-61
2021/10/24 06:45:02;;;;;;;38.97;29.58;;;12.00;99.90;;;;;;5028519;28;20482;-61
2021/10/24 06:47:35;;;;;;;40.92;30.52;;;12.00;99.90;;;;;;5029236;28;20577;-61
2021/10/24 06:50:20;;;;;;;40.10;29.58;;;12.00;99.90;;;;;;5032421;28;20041;-61
2021/10/24 06:52:57;;;;;;;41.75;30.10;;;12.00;99.90;;;;;;5030711;28;20049;-62
2021/10/24 06:55:38;;;;;;;41.13;30.50;;;11.90;99.90;;;;;;5016488;28;20466;-62
2021/10/24 06:58:23;;;;;;;41.92;30.80;;;11.90;99.90;;;;;;5016599;28;20029;-62
2021/10/24 07:01:12;;;;;;;39.90;30.10;;;11.80;99.90;;;;;;5024605;28;20042;-61
2021/10/24 07:04:14;;;;;;;44.55;30.30;;;11.80;99.90;;;;;;5014662;28;20034;-61
2021/10/24 07:06:55;;;;;;;41.53;28.40;;;11.90;99.90;;;;;;5014961;28;20053;-61
2021/10/24 07:09:25;;;;;;;40.20;31.52;;;12.00;99.90;;;;;;5030976;28;20402;-61
2021/10/24 07:11:51;;;;;;;42.95;30.85;;;11.90;99.90;;;;;;5016381;28;20037;-61
2021/10/24 07:14:18;;;;;;;41.03;31.30;;;12.00;99.90;;;;;;5016632;28;20030;-62
2021/10/24 07:16:45;;;;;;;40.78;29.25;;;12.00;99.90;;;;;;5017471;28;20025;-61
2021/10/24 07:19:11;;;;;;;41.75;31.48;;;12.00;99.90;;;;;;5034762;28;20378;-62
2021/10/24 07:21:38;;;;;;;40.55;30.45;;;12.10;99.90;;;;;;5034730;28;20417;-62
2021/10/24 07:24:07;;;;;;;39.55;29.67;;;12.10;99.90;;;;;;5034462;28;20054;-62
2021/10/24 07:26:40;;;;;;;45.05;30.40;;;12.10;99.90;;;;;;5034708;28;20036;-62
2021/10/24 07:29:09;;;;;;;44.10;32.28;;;12.10;99.90;;;;;;5030707;28;20033;-62
2021/10/24 07:31:38;;;;;;;41.42;29.30;;;12.10;99.90;;;;;;5015055;28;20048;-61
2021/10/24 07:34:37;;;;;;;41.95;30.05;;;12.20;99.90;;;;;;5014643;28;20065;-62
2021/10/24 07:37:04;;;;;;;42.25;31.25;;;12.20;99.90;;;;;;5014826;28;20492;-62
2021/10/24 07:39:31;;;;;;;44.22;31.80;;;12.30;99.90;;;;;;5014195;28;20041;-62
2021/10/24 07:41:57;;;;;;;44.88;32.42;;;12.30;99.90;;;;;;5014401;28;20041;-62
2021/10/24 07:44:25;;;;;;;46.40;33.63;;;12.30;99.90;;;;;;5014024;28;20029;-62
2021/10/24 07:46:54;;;;;;;44.42;33.38;;;12.40;99.90;;;;;;5014514;28;20034;-62
2021/10/24 07:49:26;;;;;;;44.50;33.38;;;12.40;99.90;;;;;;5014163;28;20038;-62
2021/10/24 07:51:53;;;;;;;43.95;33.67;;;12.40;99.90;;;;;;5014585;28;20405;-61
2021/10/24 07:54:21;;;;;;;43.22;33.40;;;12.10;99.90;;;;;;5017907;28;20401;-62
2021/10/24 07:56:49;;;;;;;42.05;32.47;;;12.20;99.90;;;;;;5014334;28;20036;-62
2021/10/24 07:59:27;;;;;;;41.50;30.52;;;12.20;99.90;;;;;;5032587;28;20385;-62
2021/10/24 08:01:54;;;;;;;40.70;30.25;;;12.30;99.90;;;;;;5034119;28;20033;-59
2021/10/24 08:04:22;;;;;;;37.97;29.15;;;12.30;99.90;;;;;;5025460;28;20057;-61
2021/10/24 08:06:49;;;;;;;37.72;29.38;;;12.30;99.90;;;;;;5027348;28;20377;-61
2021/10/24 08:09:15;;;;;;;44.05;29.88;;;12.40;99.90;;;;;;5023613;28;20387;-63
2021/10/24 08:11:48;;;;;;;37.58;28.30;;;12.40;99.90;;;;;;5017086;28;20033;-75
2021/10/24 08:14:15;;;;;;;39.47;29.48;;;12.40;99.90;;;;;;5016694;28;20474;-61
2021/10/24 08:16:42;;;;;;;37.75;27.45;;;12.40;99.90;;;;;;5033349;28;20048;-62
2021/10/24 08:19:16;;;;;;;42.25;30.05;;;12.40;99.90;;;;;;5017960;28;20493;-62
2021/10/24 08:21:59;;;;;;;39.40;29.73;;;12.50;99.90;;;;;;5013933;28;20474;-62
2021/10/24 08:24:27;;;;;;;43.20;31.10;;;12.50;99.80;;;;;;5026661;28;20484;-60
2021/10/24 08:27:13;;;;;;;43.30;32.88;;;12.60;99.50;;;;;;5031896;28;20098;-67
2021/10/24 08:29:40;;;;;;;42.13;32.03;;;12.60;99.30;;;;;;4999499;28;20038;-58
2021/10/24 08:32:10;;;;;;;43.97;30.58;;;12.60;99.20;;;;;;5026736;28;20028;-59
2021/10/24 08:34:38;;;;;;;41.10;30.55;;;12.70;99.30;;;;;;5015533;28;20037;-60
2021/10/24 08:37:06;;;;;;;40.80;30.52;;;12.70;98.70;;;;;;5033007;28;20101;-61
2021/10/24 08:39:32;;;;;;;40.95;31.25;;;12.70;98.80;;;;;;5033640;28;20037;-62
2021/10/24 08:42:02;;;;;;;43.10;29.30;;;12.70;98.80;;;;;;5034368;28;20029;-63
2021/10/24 08:44:29;;;;;;;37.38;29.77;;;12.80;98.80;;;;;;5028429;28;20127;-66
2021/10/24 08:46:56;;;;;;;40.38;29.85;;;12.80;98.70;;;;;;5022096;28;20523;-60
2021/10/24 08:49:23;;;;;;;39.63;31.00;;;12.80;98.50;;;;;;5024890;28;20048;-60
2021/10/24 08:51:50;;;;;;;42.28;32.47;;;12.90;98.30;;;;;;5023257;28;20036;-61
2021/10/24 08:54:28;;;;;;;38.88;29.85;;;12.90;98.10;;;;;;5024847;28;20428;-58
2021/10/24 08:56:55;;;;;;;40.03;30.15;;;12.90;97.70;;;;;;5020741;28;20018;-59
2021/10/24 08:59:22;;;;;;;45.78;31.67;;;13.00;97.50;;;;;;5018476;28;20065;-61
2021/10/24 09:01:52;;;;;;;40.78;30.98;;;13.00;97.40;;;;;;5021212;28;20022;-59
2021/10/24 09:04:21;;;;;;;41.45;31.75;;;13.10;97.20;;;;;;5020969;28;20041;-59
2021/10/24 09:06:59;;;;;;;42.67;34.25;;;13.10;97.20;;;;;;5017345;28;20061;-59
2021/10/24 09:09:34;;;;;;;41.28;30.40;;;13.10;97.00;;;;;;5017976;28;20026;-59
2021/10/24 09:12:02;;;;;;;41.83;31.13;;;13.20;97.00;;;;;;5015791;28;20477;-59
2021/10/24 09:14:50;;;;;;;41.42;32.85;;;13.30;96.80;;;;;;5019179;28;20403;-60
2021/10/24 09:17:18;;;;;;;39.45;29.27;;;13.30;96.40;;;;;;5022851;28;20048;-60
2021/10/24 09:19:51;;;;;;;43.60;31.65;;;13.30;95.80;;;;;;5021271;28;20406;-60
2021/10/24 09:22:29;;;;;;;44.63;32.88;;;13.30;95.70;;;;;;5016461;28;20025;-60
2021/10/24 09:25:19;;;;;;;41.40;31.65;;;13.40;95.60;;;;;;5017159;28;20359;-60
2021/10/24 09:27:57;;;;;;;51.25;37.58;;;13.50;95.30;;;;;;5019442;28;20033;-60
2021/10/24 09:30:34;;;;;;;44.75;31.80;;;13.60;96.00;;;;;;5031673;28;20065;-60
2021/10/24 09:33:03;;;;;;;45.63;34.33;;;13.70;94.70;;;;;;5022090;28;20033;-60
2021/10/24 09:35:31;;;;;;;45.10;33.85;;;13.80;94.20;;;;;;5027136;28;20041;-60
2021/10/24 09:38:17;;;;;;;44.58;36.03;;;13.80;94.20;;;;;;5015844;28;20021;-60
2021/10/24 09:40:58;;;;;;;43.75;32.10;;;13.90;94.20;;;;;;5031378;28;20033;-60
2021/10/24 09:43:31;;;;;;;44.10;32.70;;;13.90;94.00;;;;;;5029688;28;20030;-60
2021/10/24 09:45:58;;;;;;;41.50;30.67;;;13.90;94.10;;;;;;5032104;28;20037;-61
2021/10/24 09:48:27;;;;;;;40.92;31.38;;;14.00;93.90;;;;;;5033074;28;20041;-60
2021/10/24 09:50:57;;;;;;;41.20;30.88;;;14.00;93.30;;;;;;5031632;28;20053;-60
2021/10/24 09:53:26;;;;;;;42.55;32.13;;;14.00;92.20;;;;;;5030522;28;20032;-60
2021/10/24 09:55:52;;;;;;;38.50;28.17;;;14.00;91.80;;;;;;5030387;28;20405;-61
2021/10/24 09:58:29;;;;;;;36.78;26.65;;;14.00;91.30;;;;;;5020237;28;20025;-60
2021/10/24 10:00:56;;;;;;;38.42;28.58;;;14.10;90.60;;;;;;5013018;28;20038;-61
2021/10/24 10:03:26;;;;;;;35.35;28.15;;;14.10;90.00;;;;;;5012532;28;20033;-61
2021/10/24 10:05:53;;;;;;;43.53;29.55;;;14.20;90.00;;;;;;5012093;28;20048;-61
2021/10/24 10:08:19;;;;;;;40.05;32.47;;;14.30;90.00;;;;;;5011632;28;20053;-61
2021/10/24 10:10:58;;;;;;;40.75;32.58;;;14.30;90.50;;;;;;5011233;28;20500;-61
2021/10/24 10:13:27;;;;;;;42.58;32.08;;;14.40;90.70;;;;;;5013075;28;20033;-61
2021/10/24 10:15:55;;;;;;;46.22;33.55;;;14.40;91.00;;;;;;5012499;28;20026;-61
2021/10/24 10:18:22;;;;;;;45.83;31.55;;;14.40;91.00;;;;;;5012704;28;20466;-61
2021/10/24 10:20:52;;;;;;;46.03;32.75;;;14.40;91.00;;;;;;5012363;28;20033;-61
2021/10/24 10:23:22;;;;;;;43.28;33.80;;;14.40;91.20;;;;;;5012576;28;20045;-60
2021/10/24 10:25:50;;;;;;;39.85;30.33;;;14.40;91.00;;;;;;5012276;28;20030;-60
2021/10/24 10:28:45;;;;;;;50.35;33.70;;;14.40;91.00;;;;;;5012557;28;20025;-61
2021/10/24 10:31:16;;;;;;;51.92;32.50;;;14.30;91.30;;;;;;5012491;28;20038;-60
2021/10/24 10:33:57;;;;;;;46.20;32.17;;;14.30;91.60;;;;;;5023110;28;20037;-63
2021/10/24 10:36:44;;;;;;;39.22;30.25;;;14.40;91.80;;;;;;5021353;28;20033;-60
2021/10/24 10:39:50;;;;;;;45.53;34.72;;;14.50;91.70;;;;;;5021475;28;20470;-61
2021/10/24 10:42:26;;;;;;;42.05;32.05;;;14.60;91.30;;;;;;5020238;28;20052;-61
2021/10/24 10:45:17;;;;;;;41.72;31.38;;;14.60;91.20;;;;;;5020892;28;20044;-61
2021/10/24 10:48:06;;;;;;;42.35;32.25;;;14.70;91.30;;;;;;5021329;28;20425;-61
2021/10/24 10:50:38;;;;;;;44.20;34.17;;;14.70;91.30;;;;;;5012674;28;20026;-63
2021/10/24 10:53:08;;;;;;;44.13;34.20;;;14.60;91.30;;;;;;5012208;28;20397;-63
2021/10/24 10:56:13;;;;;;;47.25;34.53;;;14.70;91.40;;;;;;5012420;28;20033;-61
2021/10/24 10:58:43;;;;;;;43.08;34.47;;;14.70;91.40;;;;;;5014605;28;20033;-61
2021/10/24 11:01:29;;;;;;;40.65;33.08;;;14.80;91.50;;;;;;5031906;28;20033;-59
2021/10/24 11:04:07;;;;;;;46.67;32.92;;;14.80;91.70;;;;;;5029785;28;20049;-62
2021/10/24 11:06:33;;;;;;;44.42;34.67;;;14.90;91.90;;;;;;5031118;28;20057;-62
2021/10/24 11:09:04;;;;;;;45.90;38.08;;;14.90;91.80;;;;;;5032006;28;20394;-62
2021/10/24 11:11:37;;;;;;;45.45;35.05;;;14.90;91.80;;;;;;5032395;28;20501;-53
2021/10/24 11:14:33;;;;;;;44.20;34.08;;;14.90;91.90;;;;;;5031054;28;20034;-59
2021/10/24 11:17:01;;;;;;;44.00;35.42;;;14.90;92.00;;;;;;5032160;28;20034;-61
2021/10/24 11:19:28;;;;;;;42.90;34.88;;;14.90;91.80;;;;;;5032072;28;20038;-60
2021/10/24 11:22:11;;;;;;;43.08;33.08;;;14.90;91.80;;;;;;5031326;28;20025;-60
2021/10/24 11:24:44;;;;;;;52.60;36.83;;;14.90;91.90;;;;;;5031714;28;20373;-60
2021/10/24 11:27:12;;;;;;;45.00;36.63;;;15.00;91.70;;;;;;5031597;28;20386;-57
2021/10/24 11:29:53;;;;;;;45.53;33.72;;;15.00;91.10;;;;;;5031146;28;20486;-63
2021/10/24 11:32:33;;;;;;;43.92;32.63;;;15.10;90.40;;;;;;5031559;28;20033;-62
2021/10/24 11:35:16;;;;;;;43.42;31.50;;;15.20;90.20;;;;;;5031701;28;20025;-59
2021/10/24 11:37:55;;;;;;;49.75;34.35;;;15.30;89.30;;;;;;5025667;28;20033;-61
2021/10/24 11:40:25;;;;;;;45.08;34.22;;;15.30;89.20;;;;;;5030106;28;20037;-61
2021/10/24 11:43:12;;;;;;;37.42;32.88;;;15.30;89.80;;;;;;5030993;28;20025;-62
2021/10/24 11:45:43;;;;;;;46.63;34.13;;;15.30;90.10;;;;;;5025701;28;20500;-63
2021/10/24 11:48:12;;;;;;;43.58;35.40;;;15.40;90.20;;;;;;5015291;28;20033;-59
2021/10/24 11:50:47;;;;;;;43.30;35.72;;;15.40;90.50;;;;;;5017110;28;20037;-59
2021/10/24 11:53:36;;;;;;;45.20;34.78;;;15.40;90.20;;;;;;5028150;28;20037;-57
2021/10/24 11:56:06;;;;;;;46.92;34.92;;;15.50;90.20;;;;;;5024936;28;20037;-59
2021/10/24 12:01:19;;;;;;;43.67;34.10;;;15.50;90.10;;;;;;5026430;28;20032;-59
2021/10/24 12:04:14;;;;;;;43.42;34.90;;;15.50;90.30;;;;;;5025470;28;20037;-57
2021/10/24 12:07:05;;;;;;;45.90;37.03;;;15.50;90.40;;;;;;5021508;28;20050;-56
2021/10/24 12:09:42;;;;;;;42.63;35.22;;;15.50;90.70;;;;;;5019116;28;20028;-54
2021/10/24 12:12:27;;;;;;;43.67;34.75;;;15.50;90.10;;;;;;5026609;28;20587;-59
2021/10/24 12:14:58;;;;;;;45.85;34.72;;;15.40;89.10;;;;;;5030449;28;20033;-59
2021/10/24 12:17:39;;;;;;;40.58;34.58;;;15.40;88.40;;;;;;5019983;28;20037;-59
2021/10/24 12:20:20;;;;;;;47.38;34.50;;;15.50;88.20;;;;;;5027826;28;20034;-59
2021/10/24 12:22:59;;;;;;;41.13;35.40;;;15.60;88.20;;;;;;5024326;28;20044;-60
2021/10/24 12:25:36;;;;;;;46.92;34.63;;;15.60;86.80;;;;;;5025492;28;20049;-60
2021/10/24 12:28:11;;;;;;;46.45;34.80;;;15.70;87.20;;;;;;5034028;28;20049;-60
2021/10/24 12:30:38;;;;;;;41.30;31.65;;;15.70;86.40;;;;;;5031532;28;20025;-60
2021/10/24 12:33:12;;;;;;;42.30;33.25;;;15.70;86.40;;;;;;5026725;28;20038;-60
2021/10/24 12:35:43;;;;;;;42.13;33.10;;;15.80;86.90;;;;;;5031048;28;20057;-59
2021/10/24 12:38:10;;;;;;;37.92;32.05;;;15.80;86.30;;;;;;5027549;28;20029;-60
2021/10/24 12:40:37;;;;;;;45.17;35.40;;;15.80;86.00;;;;;;5025513;28;20037;-58
2021/10/24 12:43:10;;;;;;;38.78;31.52;;;15.90;86.40;;;;;;5028375;28;20037;-58
2021/10/24 12:45:48;;;;;;;41.42;32.78;;;15.90;86.20;;;;;;5026181;28;20040;-60
2021/10/24 12:48:16;;;;;;;43.80;32.80;;;16.00;85.90;;;;;;5023022;28;20034;-56
2021/10/24 12:50:43;;;;;;;42.45;33.65;;;16.10;85.70;;;;;;5018397;28;20034;-59
2021/10/24 12:53:13;;;;;;;40.95;32.67;;;16.10;84.60;;;;;;5028195;28;20038;-59